createdAt,value
2022-07-28T00:00:15.360Z,89.83
2022-07-28T00:02:42.729Z,90.18
2022-07-28T00:05:10.387Z,88.59
2022-07-28T00:07:37.687Z,87.64
2022-07-28T00:10:05.838Z,88.51
2022-07-28T00:12:33.113Z,87.88
2022-07-28T00:15:00.880Z,88.47
2022-07-28T00:17:28.251Z,88.70
2022-07-28T00:19:55.503Z,89.89
2022-07-28T00:22:22.851Z,91.38
2022-07-28T00:24:50.266Z,92.13
2022-07-28T00:27:19.459Z,90.89
2022-07-28T00:29:50.355Z,92.28
2022-07-28T00:32:20.633Z,93.10
2022-07-28T00:34:48.468Z,94.29
2022-07-28T00:37:15.697Z,93.82
2022-07-28T00:39:43.988Z,93.37
2022-07-28T00:42:12.308Z,92.94
2022-07-28T00:44:41.870Z,94.66
2022-07-28T00:47:09.542Z,94.24
2022-07-28T00:49:36.897Z,92.99
2022-07-28T00:52:06.532Z,92.85
2022-07-28T00:54:34.770Z,92.70
2022-07-28T00:57:02.321Z,92.17
2022-07-28T00:59:29.604Z,92.79
2022-07-28T01:02:01.078Z,93.66
2022-07-28T01:04:28.919Z,94.77
2022-07-28T01:07:22.490Z,94.59
2022-07-28T01:10:14.264Z,94.09
2022-07-28T01:13:00.419Z,94.22
2022-07-28T01:15:35.223Z,93.28
2022-07-28T01:18:16.983Z,92.86
2022-07-28T01:21:03.037Z,94.07
2022-07-28T01:23:32.699Z,92.89
2022-07-28T01:26:30.281Z,92.34
2022-07-28T01:29:03.232Z,92.71
2022-07-28T01:31:40.049Z,92.68
2022-07-28T01:34:15.658Z,90.94
2022-07-28T01:36:48.352Z,90.98
2022-07-28T01:39:16.589Z,89.01
2022-07-28T01:41:45.089Z,88.29
2022-07-28T01:44:19.202Z,90.15
2022-07-28T01:46:52.019Z,90.26
2022-07-28T01:49:21.676Z,90.04
2022-07-28T01:51:50.467Z,89.55
2022-07-28T01:54:23.111Z,89.25
2022-07-28T01:56:52.316Z,90.48
2022-07-28T01:59:20.981Z,90.27
2022-07-28T02:01:50.968Z,87.87
2022-07-28T02:04:24.202Z,91.00
2022-07-28T02:06:54.707Z,93.74
2022-07-28T02:09:23.376Z,96.23
2022-07-28T02:11:53.656Z,99.77
2022-07-28T02:14:25.600Z,100.00
2022-07-28T02:17:07.975Z,100.00
2022-07-28T02:19:37.604Z,100.00
2022-07-28T02:22:06.798Z,100.00
2022-07-28T02:24:35.806Z,100.00
2022-07-28T02:27:22.472Z,100.00
2022-07-28T02:30:03.285Z,100.00
2022-07-28T02:32:37.376Z,100.00
2022-07-28T02:35:31.939Z,100.00
2022-07-28T02:38:12.580Z,100.00
2022-07-28T02:40:44.809Z,100.00
2022-07-28T02:43:16.698Z,100.00
2022-07-28T02:45:48.378Z,100.00
2022-07-28T02:48:19.490Z,100.00
2022-07-28T02:50:47.735Z,100.00
2022-07-28T02:53:19.705Z,100.00
2022-07-28T02:55:49.223Z,100.00
2022-07-28T02:58:19.390Z,100.00
2022-07-28T03:00:47.956Z,100.00
2022-07-28T03:03:16.715Z,100.00
2022-07-28T03:05:44.501Z,100.00
2022-07-28T03:08:12.261Z,100.00
2022-07-28T03:10:39.659Z,100.00
2022-07-28T03:13:07.540Z,100.00
2022-07-28T03:15:36.475Z,100.00
2022-07-28T03:18:05.996Z,100.00
2022-07-28T03:20:36.999Z,100.00
2022-07-28T03:23:04.412Z,100.00
2022-07-28T03:25:51.074Z,100.00
2022-07-28T03:28:20.610Z,100.00
2022-07-28T03:30:54.865Z,100.00
2022-07-28T03:33:22.283Z,100.00
2022-07-28T03:35:52.985Z,100.00
2022-07-28T03:38:46.168Z,100.00
2022-07-28T03:41:15.350Z,100.00
2022-07-28T03:43:44.943Z,100.00
2022-07-28T03:46:13.709Z,100.00
2022-07-28T03:48:41.202Z,100.00
2022-07-28T03:51:08.558Z,100.00
2022-07-28T03:53:35.987Z,100.00
2022-07-28T03:56:03.954Z,100.00
2022-07-28T03:58:31.752Z,100.00
2022-07-28T04:00:59.522Z,100.00
2022-07-28T04:03:42.493Z,100.00
2022-07-28T04:06:15.594Z,100.00
2022-07-28T04:08:44.458Z,100.00
2022-07-28T04:11:11.932Z,100.00
2022-07-28T04:13:39.399Z,100.00
2022-07-28T04:16:07.573Z,100.00
2022-07-28T04:18:35.249Z,100.00
2022-07-28T04:21:02.641Z,100.00
2022-07-28T04:23:30.841Z,100.00
2022-07-28T04:25:58.192Z,99.95
2022-07-28T04:28:25.474Z,97.71
2022-07-28T04:30:52.753Z,94.98
2022-07-28T04:33:20.738Z,95.70
2022-07-28T04:35:48.041Z,95.99
2022-07-28T04:38:17.981Z,93.58
2022-07-28T04:40:45.767Z,95.88
2022-07-28T04:43:13.694Z,93.89
2022-07-28T04:45:46.025Z,92.59
2022-07-28T04:48:23.093Z,91.89
2022-07-28T04:50:52.728Z,91.36
2022-07-28T04:53:20.614Z,90.18
2022-07-28T04:55:53.455Z,89.65
2022-07-28T04:58:22.607Z,88.54
2022-07-28T05:00:50.930Z,88.20
2022-07-28T05:03:19.271Z,85.95
2022-07-28T05:05:49.038Z,84.65
2022-07-28T05:08:21.498Z,82.51
2022-07-28T05:10:49.230Z,81.59
2022-07-28T05:13:16.513Z,80.20
2022-07-28T05:15:43.740Z,77.79
2022-07-28T05:18:10.997Z,77.79
2022-07-28T05:20:38.210Z,77.27
2022-07-28T05:23:05.598Z,72.99
2022-07-28T05:25:32.954Z,71.99
2022-07-28T05:28:00.237Z,70.55
2022-07-28T05:30:27.588Z,67.10
2022-07-28T05:32:59.245Z,64.64
2022-07-28T05:35:26.998Z,66.28
2022-07-28T05:37:54.209Z,60.53
2022-07-28T05:40:21.555Z,60.27
2022-07-28T05:42:48.948Z,57.69
2022-07-28T05:45:21.807Z,56.76
2022-07-28T05:47:52.454Z,57.78
2022-07-28T05:50:22.272Z,58.94
2022-07-28T05:52:51.221Z,65.96
2022-07-28T05:55:19.419Z,67.50
2022-07-28T05:57:47.160Z,65.41
2022-07-28T06:00:16.745Z,64.83
2022-07-28T06:02:49.492Z,58.65
2022-07-28T06:05:19.149Z,60.42
2022-07-28T06:07:47.763Z,59.22
2022-07-28T06:10:18.457Z,59.47
2022-07-28T06:12:51.160Z,59.49
2022-07-28T06:15:27.164Z,61.52
2022-07-28T06:17:55.955Z,59.62
2022-07-28T06:20:24.697Z,57.34
2022-07-28T06:22:55.612Z,59.75
2022-07-28T06:25:28.382Z,58.20
2022-07-28T06:27:59.951Z,60.10
2022-07-28T06:30:27.820Z,57.60
2022-07-28T06:32:55.454Z,55.47
2022-07-28T06:35:23.151Z,55.28
2022-07-28T06:37:52.214Z,56.46
2022-07-28T06:40:21.242Z,57.42
2022-07-28T06:42:50.024Z,58.39
2022-07-28T06:45:21.303Z,57.92
2022-07-28T06:47:53.799Z,58.61
2022-07-28T06:50:26.510Z,58.43
2022-07-28T06:52:58.995Z,56.41
2022-07-28T06:55:34.481Z,52.87
2022-07-28T06:58:03.799Z,51.81
2022-07-28T07:00:31.602Z,51.69
2022-07-28T07:03:00.555Z,52.83
2022-07-28T07:05:32.040Z,54.05
2022-07-28T07:07:59.876Z,51.59
2022-07-28T07:10:27.547Z,49.67
2022-07-28T07:12:55.527Z,50.39
2022-07-28T07:15:25.821Z,49.23
2022-07-28T07:17:54.271Z,50.32
2022-07-28T07:20:21.604Z,49.27
2022-07-28T07:22:49.029Z,49.78
2022-07-28T07:25:20.670Z,47.32
2022-07-28T07:27:48.600Z,48.16
2022-07-28T07:30:16.958Z,47.33
2022-07-28T07:32:45.205Z,46.71
2022-07-28T07:35:12.667Z,45.79
2022-07-28T07:37:40.189Z,45.60
2022-07-28T07:40:08.874Z,45.04
2022-07-28T07:42:36.253Z,45.88
2022-07-28T07:45:04.226Z,47.96
2022-07-28T07:47:31.643Z,49.15
2022-07-28T07:50:00.850Z,48.51
2022-07-28T07:52:31.042Z,49.06
2022-07-28T07:54:58.349Z,47.37
2022-07-28T07:57:25.670Z,47.30
2022-07-28T07:59:52.895Z,49.11
2022-07-28T08:02:20.123Z,45.60
2022-07-28T08:04:47.781Z,47.75
2022-07-28T08:07:15.972Z,47.89
2022-07-28T08:09:43.267Z,46.74
2022-07-28T08:12:10.571Z,46.40
2022-07-28T08:14:37.799Z,47.05
2022-07-28T08:17:05.184Z,44.98
2022-07-28T08:19:32.480Z,44.16
2022-07-28T08:22:01.290Z,43.95
2022-07-28T08:24:34.047Z,42.14
2022-07-28T08:27:02.994Z,43.78
2022-07-28T08:29:30.582Z,42.81
2022-07-28T08:31:58.503Z,43.07
2022-07-28T08:34:33.076Z,42.41
2022-07-28T08:37:02.702Z,41.33
2022-07-28T08:39:31.348Z,41.83
2022-07-28T08:42:35.327Z,39.17
2022-07-28T08:45:05.322Z,37.82
2022-07-28T08:47:52.026Z,38.22
2022-07-28T08:50:25.381Z,36.66
2022-07-28T08:52:54.367Z,35.19
2022-07-28T08:55:32.144Z,33.58
2022-07-28T08:58:00.879Z,31.39
2022-07-28T09:00:29.553Z,29.38
2022-07-28T09:02:57.377Z,30.51
2022-07-28T09:05:28.248Z,30.29
2022-07-28T09:07:56.000Z,31.56
2022-07-28T09:10:23.761Z,29.93
2022-07-28T09:12:51.681Z,28.84
2022-07-28T09:15:19.062Z,27.77
2022-07-28T09:17:46.402Z,28.55
2022-07-28T09:20:13.935Z,27.56
2022-07-28T09:23:02.641Z,25.63
2022-07-28T09:25:30.876Z,24.37
2022-07-28T09:28:12.699Z,25.18
2022-07-28T09:30:54.086Z,23.71
2022-07-28T09:33:43.167Z,23.68
2022-07-28T09:36:16.490Z,23.44
2022-07-28T09:38:43.976Z,22.90
2022-07-28T09:41:11.796Z,22.62
2022-07-28T09:43:42.511Z,22.07
2022-07-28T09:46:18.338Z,23.95
2022-07-28T09:48:55.322Z,23.20
2022-07-28T09:51:30.713Z,22.81
2022-07-28T09:54:09.858Z,22.41
2022-07-28T09:56:41.924Z,23.81
2022-07-28T09:59:09.494Z,24.37
2022-07-28T10:01:52.508Z,24.04
2022-07-28T10:04:44.413Z,23.35
2022-07-28T10:07:17.272Z,23.47
2022-07-28T10:09:56.345Z,24.18
2022-07-28T10:12:30.741Z,24.15
2022-07-28T10:15:32.772Z,25.33
2022-07-28T10:18:00.296Z,25.84
2022-07-28T10:20:28.910Z,26.28
2022-07-28T10:23:02.020Z,26.37
2022-07-28T10:25:32.930Z,26.63
2022-07-28T10:28:01.752Z,25.34
2022-07-28T10:30:31.812Z,26.70
2022-07-28T10:33:03.358Z,27.29
2022-07-28T10:35:33.434Z,26.55
2022-07-28T10:38:24.093Z,24.86
2022-07-28T10:40:54.215Z,25.63
2022-07-28T10:43:22.555Z,26.48
2022-07-28T10:46:08.102Z,26.40
2022-07-28T10:48:41.070Z,27.29
2022-07-28T10:51:12.049Z,24.32
2022-07-28T10:54:07.076Z,24.27
2022-07-28T10:56:51.514Z,23.63
2022-07-28T10:59:46.213Z,23.25
2022-07-28T11:02:53.418Z,24.39
2022-07-28T11:05:32.684Z,22.25
2022-07-28T11:08:04.029Z,20.86
2022-07-28T11:10:56.270Z,21.56
2022-07-28T11:13:30.011Z,20.67
2022-07-28T11:16:18.524Z,20.84
2022-07-28T11:19:07.833Z,20.32
2022-07-28T11:22:28.154Z,19.57
2022-07-28T11:25:19.233Z,20.05
2022-07-28T11:27:50.049Z,18.47
2022-07-28T11:30:22.853Z,18.43
2022-07-28T11:32:55.769Z,18.29
2022-07-28T11:35:31.415Z,18.66
2022-07-28T11:38:01.551Z,19.73
2022-07-28T11:40:32.993Z,18.21
2022-07-28T11:43:22.373Z,18.24
2022-07-28T11:45:55.445Z,18.80
2022-07-28T11:48:26.460Z,18.55
2022-07-28T11:51:12.967Z,18.17
2022-07-28T11:53:41.459Z,16.77
2022-07-28T11:56:31.718Z,17.09
2022-07-28T11:59:04.039Z,17.62
2022-07-28T12:01:32.469Z,16.91
2022-07-28T12:04:15.278Z,18.63
2022-07-28T12:06:51.137Z,17.96
2022-07-28T12:09:41.335Z,19.21
2022-07-28T12:12:09.900Z,16.91
2022-07-28T12:14:39.868Z,16.56
2022-07-28T12:17:07.588Z,17.18
2022-07-28T12:19:37.754Z,17.50
2022-07-28T12:22:15.551Z,17.33
2022-07-28T12:24:47.571Z,17.62
2022-07-28T12:27:16.669Z,16.23
2022-07-28T12:29:47.985Z,17.94
2022-07-28T12:32:17.718Z,18.38
2022-07-28T12:34:46.053Z,16.89
2022-07-28T12:37:14.803Z,16.24
2022-07-28T12:39:44.368Z,17.80
2022-07-28T12:42:13.608Z,18.13
2022-07-28T12:44:43.154Z,17.83
2022-07-28T12:47:17.762Z,16.47
2022-07-28T12:49:45.881Z,15.04
2022-07-28T12:52:23.118Z,17.29
2022-07-28T12:54:56.189Z,17.60
2022-07-28T12:57:50.770Z,17.44
2022-07-28T13:00:25.862Z,19.48
2022-07-28T13:02:56.771Z,21.12
2022-07-28T13:05:31.154Z,24.60
2022-07-28T13:08:06.241Z,27.14
2022-07-28T13:10:33.928Z,27.57
2022-07-28T13:13:08.484Z,26.64
2022-07-28T13:15:35.983Z,28.28
2022-07-28T13:18:05.107Z,28.45
2022-07-28T13:20:47.091Z,29.24
2022-07-28T13:23:14.624Z,30.96
2022-07-28T13:25:42.086Z,31.94
2022-07-28T13:28:29.818Z,32.01
2022-07-28T13:30:57.180Z,32.04
2022-07-28T13:33:28.444Z,32.24
2022-07-28T13:35:56.201Z,31.48
2022-07-28T13:38:24.008Z,32.01
2022-07-28T13:40:51.364Z,32.56
2022-07-28T13:43:18.713Z,32.01
2022-07-28T13:45:48.077Z,32.03
2022-07-28T13:48:15.373Z,32.18
2022-07-28T13:50:42.630Z,30.03
2022-07-28T13:53:33.732Z,30.26
2022-07-28T13:56:01.192Z,31.44
2022-07-28T13:58:28.514Z,33.02
2022-07-28T14:00:57.261Z,31.85
2022-07-28T14:03:25.356Z,32.63
2022-07-28T14:05:52.839Z,32.47
2022-07-28T14:08:20.629Z,32.87
2022-07-28T14:10:56.718Z,31.90
2022-07-28T14:13:23.961Z,31.76
2022-07-28T14:16:02.023Z,31.01
2022-07-28T14:18:30.008Z,31.87
2022-07-28T14:20:58.529Z,30.75
2022-07-28T14:23:25.792Z,31.67
2022-07-28T14:25:53.518Z,30.25
2022-07-28T14:28:20.830Z,32.97
2022-07-28T14:30:48.055Z,32.54
2022-07-28T14:33:15.475Z,34.00
2022-07-28T14:35:43.057Z,33.20
2022-07-28T14:40:59.536Z,33.54
2022-07-28T14:43:29.315Z,33.49
2022-07-28T14:46:14.729Z,34.82
2022-07-28T14:48:43.929Z,34.89
2022-07-28T14:51:14.624Z,34.72
2022-07-28T14:53:50.021Z,34.53
2022-07-28T14:56:19.494Z,35.04
2022-07-28T14:58:46.771Z,36.40
2022-07-28T15:01:14.431Z,40.04
2022-07-28T15:03:43.236Z,42.69
2022-07-28T15:06:11.165Z,42.00
2022-07-28T15:08:38.421Z,44.34
2022-07-28T15:11:08.127Z,43.86
2022-07-28T15:13:35.561Z,44.03
2022-07-28T15:16:03.077Z,43.80
2022-07-28T15:18:30.435Z,40.86
2022-07-28T15:20:57.720Z,37.38
2022-07-28T15:23:24.967Z,32.83
2022-07-28T15:25:53.247Z,31.83
2022-07-28T15:28:20.995Z,29.07
2022-07-28T15:30:52.705Z,29.29
2022-07-28T15:33:21.126Z,28.67
2022-07-28T15:35:58.173Z,26.32
2022-07-28T15:38:31.608Z,27.14
2022-07-28T15:41:00.186Z,27.11
2022-07-28T15:43:34.932Z,25.30
2022-07-28T15:46:10.559Z,27.21
2022-07-28T15:48:39.877Z,28.74
2022-07-28T15:51:08.424Z,28.98
2022-07-28T15:53:36.789Z,29.62
2022-07-28T15:56:05.312Z,28.83
2022-07-28T15:58:32.811Z,29.46
2022-07-28T16:01:01.769Z,28.75
2022-07-28T16:03:30.715Z,29.22
2022-07-28T16:05:58.816Z,31.20
2022-07-28T16:08:27.248Z,32.20
2022-07-28T16:10:54.984Z,34.02
2022-07-28T16:13:35.781Z,34.89
2022-07-28T16:16:12.385Z,36.86
2022-07-28T16:18:43.266Z,39.26
2022-07-28T16:21:11.503Z,40.69
2022-07-28T16:23:38.874Z,42.15
2022-07-28T16:26:08.727Z,42.76
2022-07-28T16:28:36.674Z,43.90
2022-07-28T16:31:04.186Z,44.71
2022-07-28T16:33:33.449Z,45.59
2022-07-28T16:36:02.643Z,45.65
2022-07-28T16:38:30.586Z,45.30
2022-07-28T16:41:02.161Z,46.53
2022-07-28T16:43:29.505Z,46.72
2022-07-28T16:45:56.915Z,46.51
2022-07-28T16:48:25.986Z,47.14
2022-07-28T16:50:53.247Z,48.39
2022-07-28T16:53:20.503Z,49.32
2022-07-28T16:55:48.281Z,50.55
2022-07-28T16:58:15.722Z,50.83
2022-07-28T17:00:43.579Z,50.51
2022-07-28T17:03:11.041Z,50.05
2022-07-28T17:05:38.770Z,51.34
2022-07-28T17:08:06.853Z,52.01
2022-07-28T17:10:35.319Z,52.02
2022-07-28T17:13:03.163Z,51.83
2022-07-28T17:15:30.506Z,53.05
2022-07-28T17:17:59.118Z,52.99
2022-07-28T17:20:26.489Z,53.64
2022-07-28T17:22:53.896Z,53.98
2022-07-28T17:28:08.822Z,54.73
2022-07-28T17:30:36.557Z,53.43
2022-07-28T17:33:08.790Z,53.56
2022-07-28T17:35:38.611Z,54.22
2022-07-28T17:38:08.486Z,54.82
2022-07-28T17:40:38.355Z,54.15
2022-07-28T17:43:12.044Z,54.62
2022-07-28T17:45:40.073Z,53.77
2022-07-28T17:48:07.471Z,53.00
2022-07-28T17:50:37.382Z,53.72
2022-07-28T17:53:05.142Z,51.92
2022-07-28T17:55:57.690Z,52.67
2022-07-28T17:58:32.270Z,52.81
2022-07-28T18:01:12.189Z,51.61
2022-07-28T18:03:56.829Z,51.52
2022-07-28T18:06:34.831Z,51.11
2022-07-28T18:09:06.294Z,51.71
2022-07-28T18:11:37.556Z,52.54
2022-07-28T18:14:25.995Z,52.90
2022-07-28T18:16:53.295Z,52.66
2022-07-28T18:19:20.687Z,53.53
2022-07-28T18:21:47.983Z,53.16
2022-07-28T18:24:15.567Z,52.85
2022-07-28T18:26:43.174Z,53.33
2022-07-28T18:29:10.469Z,52.13
2022-07-28T18:31:45.441Z,52.17
2022-07-28T18:34:14.515Z,55.24
2022-07-28T18:36:42.392Z,58.86
2022-07-28T18:39:09.980Z,61.08
2022-07-28T18:41:47.154Z,62.52
2022-07-28T18:44:17.785Z,64.27
2022-07-28T18:46:45.883Z,63.18
2022-07-28T18:49:14.061Z,63.15
2022-07-28T18:51:45.359Z,63.16
2022-07-28T18:54:20.001Z,59.30
2022-07-28T18:56:52.333Z,56.16
2022-07-28T18:59:19.958Z,55.27
2022-07-28T19:01:47.365Z,53.20
2022-07-28T19:04:14.905Z,51.89
2022-07-28T19:06:42.607Z,50.90
2022-07-28T19:09:10.222Z,50.17
2022-07-28T19:11:41.181Z,50.40
2022-07-28T19:14:12.648Z,49.86
2022-07-28T19:16:40.025Z,49.18
2022-07-28T19:19:07.352Z,49.04
2022-07-28T19:21:35.238Z,49.46
2022-07-28T19:24:02.882Z,49.47
2022-07-28T19:26:30.189Z,50.31
2022-07-28T19:28:57.743Z,51.20
2022-07-28T19:31:25.784Z,52.28
2022-07-28T19:33:53.346Z,53.37
2022-07-28T19:36:22.392Z,54.53
2022-07-28T19:38:52.431Z,55.29
2022-07-28T19:41:22.680Z,55.70
2022-07-28T19:43:50.112Z,56.64
2022-07-28T19:46:19.001Z,57.21
2022-07-28T19:48:46.474Z,56.60
2022-07-28T19:51:14.950Z,55.61
2022-07-28T19:53:43.401Z,53.91
2022-07-28T19:56:12.034Z,52.72
2022-07-28T19:58:39.471Z,52.09
2022-07-28T20:01:07.054Z,52.41
2022-07-28T20:04:02.669Z,53.37
2022-07-28T20:06:25.321Z,54.62
2022-07-28T20:08:54.193Z,54.58
2022-07-28T20:11:21.572Z,53.99
2022-07-28T20:13:49.548Z,54.59
2022-07-28T20:16:17.582Z,54.68
2022-07-28T20:18:44.988Z,55.39
2022-07-28T20:21:12.331Z,54.62
2022-07-28T20:23:41.061Z,54.79
2022-07-28T20:26:10.143Z,55.53
2022-07-28T20:28:38.081Z,56.21
2022-07-28T20:31:07.437Z,55.53
2022-07-28T20:33:34.745Z,55.32
2022-07-28T20:36:02.019Z,54.66
2022-07-28T20:38:29.257Z,55.46
2022-07-28T20:40:56.539Z,55.82
2022-07-28T20:43:23.783Z,56.86
2022-07-28T20:46:05.856Z,58.39
2022-07-28T20:48:33.395Z,58.87
2022-07-28T20:51:00.657Z,59.96
2022-07-28T20:53:27.975Z,60.37
2022-07-28T20:55:55.403Z,61.09
2022-07-28T20:58:22.628Z,60.89
2022-07-28T21:00:51.325Z,62.32
2022-07-28T21:03:19.151Z,62.29
2022-07-28T21:05:46.388Z,62.32
2022-07-28T21:08:16.097Z,62.65
2022-07-28T21:10:44.958Z,61.95
2022-07-28T21:13:12.319Z,62.15
2022-07-28T21:15:39.585Z,62.74
2022-07-28T21:18:06.821Z,63.62
2022-07-28T21:20:34.231Z,63.97
2022-07-28T21:23:01.722Z,63.39
2022-07-28T21:25:34.740Z,64.36
2022-07-28T21:28:20.939Z,64.55
2022-07-28T21:30:48.172Z,64.26
2022-07-28T21:33:22.538Z,63.88
2022-07-28T21:35:51.127Z,64.85
2022-07-28T21:38:18.375Z,63.61
2022-07-28T21:40:45.589Z,63.95
2022-07-28T21:43:12.812Z,63.44
2022-07-28T21:45:40.252Z,63.08
2022-07-28T21:48:07.652Z,63.56
2022-07-28T21:50:37.524Z,63.03
2022-07-28T21:53:05.097Z,62.58
2022-07-28T21:55:32.421Z,64.13
2022-07-28T21:57:59.673Z,63.95
2022-07-28T22:00:26.959Z,63.13
2022-07-28T22:02:54.279Z,65.13
2022-07-28T22:05:21.741Z,64.96
2022-07-28T22:07:49.299Z,64.96
2022-07-28T22:10:17.529Z,65.31
2022-07-28T22:12:45.741Z,65.74
2022-07-28T22:15:12.960Z,66.15
2022-07-28T22:17:40.201Z,65.93
2022-07-28T22:20:10.426Z,65.42
2022-07-28T22:22:38.129Z,64.56
2022-07-28T22:25:05.812Z,64.31
2022-07-28T22:27:33.177Z,64.21
2022-07-28T22:30:00.434Z,64.29
2022-07-28T22:32:28.880Z,64.90
2022-07-28T22:34:58.223Z,64.55
2022-07-28T22:37:25.700Z,64.48
2022-07-28T22:39:53.158Z,65.14
2022-07-28T22:42:20.414Z,65.38
2022-07-28T22:44:48.652Z,65.44
2022-07-28T22:47:16.069Z,66.34
2022-07-28T22:49:43.395Z,65.51
2022-07-28T22:52:10.770Z,65.03
2022-07-28T22:54:39.184Z,64.88
2022-07-28T22:57:07.277Z,64.66
2022-07-28T22:59:39.871Z,65.03
2022-07-28T23:02:08.006Z,65.53
2022-07-28T23:04:38.409Z,66.05
2022-07-28T23:07:05.966Z,66.69
2022-07-28T23:09:41.076Z,66.87
2022-07-28T23:12:10.573Z,67.11
2022-07-28T23:14:37.961Z,66.44
2022-07-28T23:17:05.531Z,66.32
2022-07-28T23:19:32.961Z,66.64
2022-07-28T23:22:00.328Z,67.26
2022-07-28T23:24:27.800Z,67.40
2022-07-28T23:26:55.907Z,67.43
2022-07-28T23:29:23.423Z,66.62
2022-07-28T23:31:51.346Z,66.82
2022-07-28T23:34:19.137Z,67.76
2022-07-28T23:36:48.067Z,68.85
2022-07-28T23:39:15.557Z,69.56
2022-07-28T23:41:43.028Z,70.32
2022-07-28T23:44:10.507Z,71.40
2022-07-28T23:46:37.925Z,72.40
2022-07-28T23:49:05.767Z,72.74
2022-07-28T23:51:47.179Z,73.13
2022-07-28T23:54:16.526Z,73.93
2022-07-28T23:56:44.299Z,73.86
2022-07-28T23:59:14.433Z,73.07
